Raduzhny, Russia
Current Conditions -  °F | °C
As of 6:00 PM on Sunday 23 Nov 2014 (Local Time) from USNN Reporting Station
Clear Clear  
Wind Chill: -42°   Ceiling: Unl
Heat Index: -27°   Visibility: 6mi
Dew Point: -35°   Wind: 4mph
Humidity: 69%   Direction: NA
Pressure: 30.03"   Gusts: NA
Location:  62.16°N, 77.31°E
Report Text: USNN 231300Z VRB02MPS CAVOK M33/M37 Q1017 NOSIG RMK QFE7572131//58
Loading
Personal Weather Stations






























Interactive Weather Map New forecast layout! Learn more

10-Day Weather Forecast

Advertisements
Track Severe Weather on mobile